Eastern, KY (41622)

11:16 PM EDT on August 21, 2014 (GMT -0400)
Middle Creek VFD Station 2 | Change Station
CLOSE
Current Station
Personal Weather Station
Location: Prestonsburg, KY
Elevation: 689 ft
Nearby Weather Stations

Elev 689 ft 37.64 °N, 82.85 °W | Updated 10 minutes ago

Scattered Clouds
Scattered Clouds
70.7 °F
Feels Like 70.7 °F
N
0.0
Wind Variable Wind from North

Today
High -- | Low -- °F
--% Chance of Precip.
Yesterday
High -- | Low -- °F
Precip. -- in
6:52 AM 8:15 PM
Waning Crescent, 10% visible
Pressure 30.09 in
Visibility 10.0 miles
Clouds Scattered Clouds 11000 ft
Dew Point 70 °F
Humidity 96%
Rainfall 0.00 in
Snow Depth Not available.
UV 0 out of 12
Pollen 8.60 out of 12
Air Quality Not available.
Flu Activity Not available.
METAR KSJS 220255Z AUTO 18003KT 10SM SCT110 22/21 A3009 RMK AO2 T02150207

More Conditions Fewer Conditions

Pressure 30.09 in
Visibility 10.0 miles
Clouds Scattered Clouds 11000 ft
Dew Point 70 °F
Humidity 96%
Rainfall 0.00 in
Snow Depth Not available.
UV 0 out of 12
Pollen 8.60 out of 12
Air Quality Not available.
Flu Activity Not available.
METAR KSJS 220255Z AUTO 18003KT 10SM SCT110 22/21 A3009 RMK AO2 T02150207

More Conditions Fewer Conditions

10-Day Weather Forecast

Almanac

Astronomy

Aug. 21, 2014 Rise Set
Actual Time 6:52 AM EDT 8:15 PM EDT
Civil Twilight 6:24 AM EDT 8:43 PM EDT
Nautical Twilight 5:52 AM EDT 9:15 PM EDT
Astronomical Twilight 5:17 AM EDT 9:50 PM EDT
Moon 3:23 AM EDT (8/21) 5:42 PM EDT (8/21)
Length of Visible Light 14h 18m
Length of Day
13h 23m
Tomorrow will be 2m 12s shorter.
Waning Crescent, 10% of the Moon is Illuminated
Today
Waning Crescent
Aug 25
New
Sep 2
First Quarter
Sep 8
Full
Sep 15
Last Quarter

Today's Extremes

State Highs State Lows

Community

WunderPhotos

Upload Photos

1,746,122 photos uploaded!

Nearby

Snow Depth

Station Depth Elevation
No new snow has been reported.

Earthquake Activity

City Distance Mag. Time & Date
No recent earthquake activity has been reported nearby.
Minimum magnitude displayed is 2.5.

Coastal Water Temperatures

Place Temperature
No Stations Reporting

Nearby Weather Stations